Time;durP1;ratioP1;P1;durP2;ratioP2;P2;SDS_P1;SDS_P2;PMS_P1;PMS_P2;Temp;Humidity;BMP_temperature;BMP_pressure;BME280_temperature;BME280_humidity;BME280_pressure;Samples;Min_cycle;Max_cycle;Signal;HPM_P1;HPM_P2
2022/03/02 00:00:21;;;;;;;;;56.75;44.00;;;;;10.84;47.36;102151.63;5031070;28;49763;-66
2022/03/02 00:02:47;;;;;;;;;47.50;41.00;;;;;10.81;47.53;102151.50;5013111;28;50028;-66
2022/03/02 00:05:13;;;;;;;;;55.75;43.00;;;;;10.89;47.14;102142.19;5031155;28;49865;-66
2022/03/02 00:07:39;;;;;;;;;57.25;46.50;;;;;10.64;47.55;102115.75;5030468;28;49798;-66
2022/03/02 00:10:05;;;;;;;;;50.75;42.25;;;;;10.34;47.41;102060.22;5030713;28;50520;-66
2022/03/02 00:12:30;;;;;;;;;53.50;44.25;;;;;10.19;47.73;102063.03;5031060;28;49652;-66
2022/03/02 00:14:57;;;;;;;;;55.50;45.50;;;;;10.66;47.41;102118.44;5030920;28;49860;-67
2022/03/02 00:17:23;;;;;;;;;49.75;41.25;;;;;9.59;47.69;101953.75;5026972;28;50619;-66
2022/03/02 00:19:48;;;;;;;;;53.75;42.00;;;;;9.28;47.72;101936.69;5030523;28;49738;-65
2022/03/02 00:22:14;;;;;;;;;59.00;45.25;;;;;8.96;48.10;101850.50;5030384;28;50009;-67
2022/03/02 00:24:39;;;;;;;;;53.50;44.50;;;;;10.60;48.06;102125.22;5030497;28;49650;-67
2022/03/02 00:27:04;;;;;;;;;59.50;47.25;;;;;8.83;48.51;101846.44;5030355;28;49894;-66
2022/03/02 00:29:30;;;;;;;;;54.75;45.00;;;;;10.39;48.83;102099.78;5030496;28;50007;-66
2022/03/02 00:31:55;;;;;;;;;54.50;43.00;;;;;9.95;48.52;102022.66;5029685;28;49940;-74
2022/03/02 00:34:21;;;;;;;;;55.75;45.25;;;;;10.48;48.39;102155.31;5030756;28;50004;-66
2022/03/02 00:36:48;;;;;;;;;53.50;43.75;;;;;10.23;48.79;102096.53;5028670;28;51321;-67
2022/03/02 00:39:14;;;;;;;;;46.00;40.50;;;;;9.95;48.54;102043.63;5030254;28;49834;-67
2022/03/02 00:41:39;;;;;;;;;50.50;41.00;;;;;10.13;47.62;102064.50;5030446;28;49794;-67
2022/03/02 00:44:05;;;;;;;;;53.25;43.50;;;;;10.44;48.14;102117.53;5012510;28;49903;-67
2022/03/02 00:46:32;;;;;;;;;52.00;42.75;;;;;10.16;48.18;102083.03;5030202;28;50458;-67
2022/03/02 00:49:03;;;;;;;;;49.25;41.50;;;;;9.08;48.49;101872.03;5030525;28;49703;-66
2022/03/02 00:51:29;;;;;;;;;48.25;39.75;;;;;9.92;47.70;102002.41;5030290;28;49855;-67
2022/03/02 00:53:55;;;;;;;;;51.25;42.00;;;;;8.97;48.20;101886.34;5023687;28;49987;-66
2022/03/02 00:56:21;;;;;;;;;46.25;41.25;;;;;9.61;48.30;101965.19;5029973;28;49618;-67
2022/03/02 00:58:47;;;;;;;;;53.50;40.00;;;;;10.43;48.08;102117.47;5029971;28;49999;-67
2022/03/02 01:01:12;;;;;;;;;59.75;44.25;;;;;10.10;48.78;102052.16;5030107;28;49686;-67
2022/03/02 01:03:37;;;;;;;;;55.00;45.25;;;;;8.79;48.17;101847.16;5030137;28;49753;-67
2022/03/02 01:06:05;;;;;;;;;53.00;40.75;;;;;9.51;48.08;101942.94;5029905;28;50828;-67
2022/03/02 01:08:31;;;;;;;;;52.00;43.00;;;;;10.14;48.12;102054.09;5029868;28;49898;-67
2022/03/02 01:10:56;;;;;;;;;56.75;45.50;;;;;10.17;48.23;102076.94;5030287;28;49925;-66
2022/03/02 01:13:22;;;;;;;;;49.50;41.00;;;;;9.94;48.70;102026.06;5030315;28;49669;-66
2022/03/02 01:15:47;;;;;;;;;52.00;43.25;;;;;10.17;48.49;102064.72;5029660;28;50525;-67
2022/03/02 01:18:13;;;;;;;;;50.25;42.00;;;;;9.42;48.41;101919.84;5029713;28;49107;-66
2022/03/02 01:20:38;;;;;;;;;56.00;44.75;;;;;10.41;48.96;102101.63;5030002;28;49724;-67
2022/03/02 01:23:04;;;;;;;;;59.25;47.50;;;;;10.11;48.35;102051.31;5028383;28;49847;-67
2022/03/02 01:25:29;;;;;;;;;59.75;46.75;;;;;9.58;48.64;101963.34;5029590;28;50767;-67
2022/03/02 01:27:55;;;;;;;;;58.75;44.50;;;;;10.21;48.74;102074.50;5029881;28;49675;-66
2022/03/02 01:30:20;;;;;;;;;60.00;48.00;;;;;10.29;48.46;102088.88;5029789;28;49768;-67
2022/03/02 01:32:46;;;;;;;;;54.25;45.25;;;;;10.19;48.55;102083.16;5030074;28;49655;-67
2022/03/02 01:35:12;;;;;;;;;55.75;43.50;;;;;10.26;48.35;102101.88;5029364;28;50784;-68
2022/03/02 01:37:37;;;;;;;;;57.50;46.25;;;;;9.23;48.32;101937.28;5029275;28;49870;-67
2022/03/02 01:40:04;;;;;;;;;53.75;46.00;;;;;9.70;48.65;102018.94;5029597;28;50251;-68
2022/03/02 01:42:29;;;;;;;;;56.00;43.50;;;;;7.82;48.52;101705.75;5031139;28;49994;-66
2022/03/02 01:44:54;;;;;;;;;59.00;47.75;;;;;8.36;48.75;101810.25;5015168;28;52315;-66
2022/03/02 01:47:20;;;;;;;;;59.25;45.00;;;;;9.67;49.11;102031.94;5033184;28;49853;-66
2022/03/02 01:49:46;;;;;;;;;57.25;45.75;;;;;9.88;48.44;102036.31;5033140;28;49790;-67
2022/03/02 01:52:11;;;;;;;;;60.75;46.00;;;;;10.08;49.05;102080.06;5032885;28;49879;-66
2022/03/02 01:54:37;;;;;;;;;44.75;37.75;;;;;7.86;49.10;101705.03;5032606;28;49891;-66
2022/03/02 01:57:03;;;;;;;;;60.50;47.25;;;;;7.97;48.59;101710.78;5032801;28;49854;-66
2022/03/02 01:59:29;;;;;;;;;56.00;46.75;;;;;10.00;48.80;102058.72;5033037;28;49831;-66
2022/03/02 02:01:55;;;;;;;;;54.75;42.50;;;;;9.40;48.86;101955.56;5033221;28;49776;-65
2022/03/02 02:04:20;;;;;;;;;49.50;42.25;;;;;7.72;48.76;101679.97;5032827;28;50458;-66
2022/03/02 02:06:46;;;;;;;;;60.50;46.50;;;;;8.49;49.21;101799.50;5032687;28;49594;-66
2022/03/02 02:09:11;;;;;;;;;50.75;42.00;;;;;8.18;48.73;101750.09;5032747;28;49936;-66
2022/03/02 02:11:37;;;;;;;;;46.25;40.00;;;;;8.61;48.93;101870.75;5032975;28;49883;-66
2022/03/02 02:14:02;;;;;;;;;52.25;41.00;;;;;9.97;49.29;102053.34;5032388;28;49845;-67
2022/03/02 02:16:28;;;;;;;;;57.75;47.25;;;;;9.80;49.36;102016.72;5014554;28;49812;-65
2022/03/02 02:18:56;;;;;;;;;57.25;46.00;;;;;9.75;49.04;102009.56;5032870;28;49854;-66
2022/03/02 02:21:22;;;;;;;;;57.00;45.50;;;;;9.87;48.37;102035.44;5032635;28;50144;-66
2022/03/02 02:23:48;;;;;;;;;48.00;39.50;;;;;9.44;49.21;101973.19;5032441;28;50398;-66
2022/03/02 02:26:14;;;;;;;;;49.00;42.00;;;;;9.43;49.84;101960.94;5032622;28;49715;-66
2022/03/02 02:28:40;;;;;;;;;57.75;47.25;;;;;9.93;48.69;102037.41;5032479;28;49626;-66
2022/03/02 02:31:06;;;;;;;;;51.75;43.75;;;;;9.42;49.07;101961.75;5032742;28;49779;-66
2022/03/02 02:33:31;;;;;;;;;55.75;44.00;;;;;9.75;49.63;102019.16;5032149;28;50355;-66
2022/03/02 02:35:57;;;;;;;;;46.00;39.00;;;;;8.98;49.44;101894.28;5032305;28;49918;-66
2022/03/02 02:38:23;;;;;;;;;55.50;45.75;;;;;8.44;49.09;101820.25;5032301;28;49854;-66
2022/03/02 02:40:50;;;;;;;;;43.00;38.25;;;;;9.62;48.50;101985.34;5032242;28;49836;-66
2022/03/02 02:43:17;;;;;;;;;49.00;41.00;;;;;9.53;48.67;101970.09;5032326;28;50817;-66
2022/03/02 02:45:43;;;;;;;;;50.25;42.25;;;;;8.83;48.48;101846.44;5032217;28;49932;-66
2022/03/02 02:48:09;;;;;;;;;48.75;40.00;;;;;9.68;48.73;102012.75;5014017;28;49931;-66
2022/03/02 02:50:35;;;;;;;;;49.75;43.25;;;;;9.75;48.20;102013.91;5032267;28;49729;-66
2022/03/02 02:53:07;;;;;;;;;56.25;44.00;;;;;9.78;48.74;102011.41;5031532;28;49823;-66
2022/03/02 02:55:33;;;;;;;;;46.25;38.50;;;;;9.82;48.79;102004.56;5013372;28;49896;-67
2022/03/02 02:58:00;;;;;;;;;55.25;42.75;;;;;8.87;48.88;101859.72;5032209;28;49701;-66
2022/03/02 03:00:28;;;;;;;;;57.25;44.25;;;;;9.51;48.86;101956.03;5032246;28;49827;-66
2022/03/02 03:02:55;;;;;;;;;57.00;43.75;;;;;9.77;49.51;101986.03;5031693;28;51111;-67
2022/03/02 03:05:24;;;;;;;;;45.75;37.50;;;;;9.44;49.38;101933.00;5031731;28;49939;-67
2022/03/02 03:07:50;;;;;;;;;51.25;43.25;;;;;9.44;49.00;101931.28;5031643;28;49768;-67
2022/03/02 03:10:17;;;;;;;;;53.75;40.75;;;;;8.74;49.11;101806.75;5031914;28;49736;-67
2022/03/02 03:12:44;;;;;;;;;44.25;38.75;;;;;7.64;49.18;101643.03;5031568;28;50641;-66
2022/03/02 03:15:11;;;;;;;;;43.50;38.50;;;;;9.61;48.81;101987.06;5031811;28;49827;-67
2022/03/02 03:17:37;;;;;;;;;39.50;34.25;;;;;7.33;49.11;101596.28;5031865;28;49534;-67
2022/03/02 03:20:06;;;;;;;;;57.00;44.00;;;;;8.56;49.08;101806.81;5031891;28;49691;-67
2022/03/02 03:22:32;;;;;;;;;55.00;42.50;;;;;9.58;49.86;101978.19;5031211;28;50019;-67
2022/03/02 03:24:57;;;;;;;;;47.50;39.75;;;;;8.11;49.58;101722.78;5031450;28;49731;-66
2022/03/02 03:27:23;;;;;;;;;58.75;43.00;;;;;8.80;49.57;101855.06;5031661;28;50209;-66
2022/03/02 03:29:49;;;;;;;;;43.75;39.00;;;;;8.40;49.87;101826.19;5031530;28;49681;-66
2022/03/02 03:32:17;;;;;;;;;54.75;41.75;;;;;9.37;49.55;101976.41;5031364;28;49698;-67
2022/03/02 03:34:42;;;;;;;;;50.50;42.25;;;;;9.28;50.10;101946.28;5031477;28;49710;-67
2022/03/02 03:37:08;;;;;;;;;46.50;40.00;;;;;9.44;49.88;101991.56;5031385;28;49753;-66
2022/03/02 03:39:35;;;;;;;;;50.00;41.25;;;;;8.39;49.63;101784.22;5031684;28;50309;-66
2022/03/02 03:42:00;;;;;;;;;55.25;42.75;;;;;9.11;49.21;101901.88;5030963;28;49844;-66
2022/03/02 03:44:26;;;;;;;;;57.00;45.00;;;;;9.34;49.18;101941.28;5031017;28;49812;-67
2022/03/02 03:46:51;;;;;;;;;54.75;41.00;;;;;7.89;49.60;101739.16;5031335;28;49762;-67
2022/03/02 03:49:17;;;;;;;;;55.25;45.00;;;;;8.40;49.98;101817.44;5031557;28;49763;-67
2022/03/02 03:51:42;;;;;;;;;54.25;40.75;;;;;7.27;49.70;101632.56;5030845;28;50775;-67
2022/03/02 03:54:08;;;;;;;;;57.25;45.25;;;;;8.75;50.12;101882.75;5031253;28;49907;-67
2022/03/02 03:56:34;;;;;;;;;51.75;42.75;;;;;8.29;49.85;101782.88;5031196;28;49826;-66
2022/03/02 03:58:59;;;;;;;;;51.50;42.00;;;;;8.82;49.64;101887.44;5031159;28;50060;-66
2022/03/02 04:01:26;;;;;;;;;51.00;41.50;;;;;9.15;49.94;101926.47;5030735;28;49802;-66
2022/03/02 04:03:51;;;;;;;;;51.25;43.50;;;;;9.24;49.71;101939.09;5030942;28;50024;-67
2022/03/02 04:06:17;;;;;;;;;57.25;44.00;;;;;8.88;49.96;101884.22;5012835;28;50169;-67
2022/03/02 04:08:42;;;;;;;;;55.00;44.25;;;;;8.63;50.06;101858.63;5031077;28;49960;-67
2022/03/02 04:11:08;;;;;;;;;51.25;42.50;;;;;7.17;49.81;101605.13;5030944;28;49862;-68
2022/03/02 04:13:34;;;;;;;;;53.25;43.50;;;;;9.26;49.91;101966.25;5030825;28;49827;-66
2022/03/02 04:15:59;;;;;;;;;53.50;43.00;;;;;7.72;50.01;101735.78;5030673;28;49796;-67
2022/03/02 04:18:24;;;;;;;;;57.25;43.50;;;;;9.21;50.82;101973.91;5030863;28;50161;-66
2022/03/02 04:20:51;;;;;;;;;51.50;42.75;;;;;7.05;49.85;101590.59;5030191;28;49689;-66
2022/03/02 04:23:16;;;;;;;;;47.00;42.25;;;;;8.33;50.61;101827.56;5030622;28;49980;-66
2022/03/02 04:25:42;;;;;;;;;50.25;41.00;;;;;8.37;50.16;101852.19;5030639;28;49992;-67
2022/03/02 04:28:07;;;;;;;;;58.50;47.00;;;;;8.72;50.98;101895.72;5030804;28;49840;-66
2022/03/02 04:30:33;;;;;;;;;52.00;43.50;;;;;9.12;50.77;101944.66;5030544;28;49881;-66
2022/03/02 04:32:59;;;;;;;;;56.25;44.50;;;;;7.91;50.41;101778.44;5030458;28;49782;-66
2022/03/02 04:35:25;;;;;;;;;55.25;45.50;;;;;7.99;50.37;101780.59;5030492;28;49971;-66
2022/03/02 04:37:50;;;;;;;;;58.75;46.50;;;;;7.72;50.35;101750.53;5030460;28;50070;-66
2022/03/02 04:40:16;;;;;;;;;56.50;44.00;;;;;6.91;51.08;101613.41;5030289;28;49772;-66
2022/03/02 04:42:42;;;;;;;;;55.75;43.75;;;;;7.84;50.71;101755.47;5030394;28;50027;-66
2022/03/02 04:45:08;;;;;;;;;56.50;47.00;;;;;6.74;50.60;101616.88;5030548;28;49837;-66
2022/03/02 04:47:34;;;;;;;;;50.25;41.25;;;;;7.85;51.26;101771.22;5030753;28;49810;-66
2022/03/02 04:49:59;;;;;;;;;61.25;47.75;;;;;7.74;51.49;101775.06;5030174;28;49785;-66
2022/03/02 04:52:24;;;;;;;;;58.50;47.50;;;;;7.35;51.27;101714.81;5030116;28;49922;-66
2022/03/02 04:55:09;;;;;;;;;55.75;44.50;;;;;7.99;51.15;101798.91;5030146;28;49705;-66
2022/03/02 04:57:46;;;;;;;;;58.50;42.00;;;;;6.43;50.88;101538.81;5030301;28;49781;-67
2022/03/02 05:00:17;;;;;;;;;53.50;44.25;;;;;6.48;51.45;101553.00;5025175;28;50950;-66
2022/03/02 05:02:44;;;;;;;;;54.00;41.00;;;;;8.75;51.28;101973.50;5030056;28;49934;-65
2022/03/02 05:05:11;;;;;;;;;53.50;45.25;;;;;8.38;51.41;101887.09;5030485;28;49832;-65
2022/03/02 05:07:37;;;;;;;;;52.50;43.25;;;;;6.35;51.17;101542.75;5029938;28;49933;-65
2022/03/02 05:10:04;;;;;;;;;49.75;43.25;;;;;7.33;51.28;101732.09;5029869;28;50505;-65
2022/03/02 05:12:30;;;;;;;;;49.50;40.75;;;;;8.64;51.58;101911.88;5030043;28;49836;-65
2022/03/02 05:14:56;;;;;;;;;55.75;45.25;;;;;8.74;51.53;101959.50;5029874;28;49828;-65
2022/03/02 05:17:21;;;;;;;;;58.25;47.75;;;;;7.11;51.54;101677.03;5029521;28;49834;-65
2022/03/02 05:19:47;;;;;;;;;50.50;43.00;;;;;8.78;51.14;101952.69;5029492;28;49833;-65
2022/03/02 05:22:12;;;;;;;;;54.75;45.50;;;;;6.54;51.30;101535.91;5029662;28;49703;-65
2022/03/02 05:24:38;;;;;;;;;46.25;41.25;;;;;8.67;50.87;101891.06;5029793;28;49902;-65
2022/03/02 05:27:04;;;;;;;;;64.50;48.50;;;;;8.79;51.29;101913.50;5029957;28;50521;-66
2022/03/02 05:29:29;;;;;;;;;58.50;46.75;;;;;8.36;51.73;101825.94;5029723;28;49752;-65
2022/03/02 05:31:55;;;;;;;;;60.50;47.25;;;;;8.36;51.70;101821.59;5029558;28;49933;-66
2022/03/02 05:34:20;;;;;;;;;52.00;43.00;;;;;8.40;50.66;101830.53;5029845;28;49871;-66
2022/03/02 05:36:46;;;;;;;;;58.00;44.50;;;;;8.73;50.92;101888.75;5029447;28;50035;-66
2022/03/02 05:39:12;;;;;;;;;54.75;44.25;;;;;7.38;50.84;101669.66;5029474;28;50712;-66
2022/03/02 05:41:38;;;;;;;;;58.25;43.75;;;;;8.72;51.70;101894.81;5029550;28;49785;-67
2022/03/02 05:44:04;;;;;;;;;61.00;48.00;;;;;7.99;50.94;101766.63;5029743;28;50058;-66
2022/03/02 05:46:31;;;;;;;;;47.00;36.25;;;;;7.97;50.79;101784.88;5029779;28;49752;-66
2022/03/02 05:48:56;;;;;;;;;46.50;37.75;;;;;8.63;51.29;101910.09;5029377;28;51118;-66
2022/03/02 05:51:22;;;;;;;;;59.50;47.25;;;;;6.35;51.15;101498.41;5029029;28;49875;-66
2022/03/02 05:53:47;;;;;;;;;57.75;42.00;;;;;8.04;51.37;101836.66;5029443;28;49577;-66
2022/03/02 05:56:13;;;;;;;;;52.00;39.75;;;;;8.41;51.29;101879.41;5029833;28;49678;-67
2022/03/02 05:58:38;;;;;;;;;58.25;44.50;;;;;8.56;50.87;101908.91;5029280;28;51063;-67
2022/03/02 06:01:04;;;;;;;;;57.50;42.50;;;;;7.80;51.16;101801.47;5029473;28;50037;-67
2022/03/02 06:03:31;;;;;;;;;52.75;42.50;;;;;7.86;51.14;101796.53;5029687;28;49989;-64
2022/03/02 06:05:57;;;;;;;;;58.50;47.00;;;;;8.61;51.07;101894.31;5029368;28;50034;-64
2022/03/02 06:08:23;;;;;;;;;52.25;45.00;;;;;8.60;50.85;101900.38;5028908;28;50621;-67
2022/03/02 06:10:49;;;;;;;;;60.75;49.25;;;;;7.93;50.93;101808.22;5029118;28;49733;-67
2022/03/02 06:13:14;;;;;;;;;53.00;44.25;;;;;8.12;50.89;101810.88;5027831;28;49737;-66
2022/03/02 06:15:42;;;;;;;;;58.00;45.25;;;;;8.49;51.32;101885.88;5029457;28;49636;-66
2022/03/02 06:18:07;;;;;;;;;52.00;44.50;;;;;8.15;51.80;101816.25;5028985;28;51010;-66
2022/03/02 06:20:33;;;;;;;;;52.25;43.50;;;;;6.55;51.03;101570.72;5029186;28;49878;-66
2022/03/02 06:22:59;;;;;;;;;58.50;47.25;;;;;8.18;51.57;101853.00;5028980;28;49793;-66
2022/03/02 06:25:26;;;;;;;;;61.00;46.50;;;;;7.68;51.55;101736.44;5029022;28;49685;-68
2022/03/02 06:27:51;;;;;;;;;54.75;45.25;;;;;7.17;51.48;101633.84;5028829;28;49853;-66
2022/03/02 06:30:17;;;;;;;;;55.25;44.75;;;;;8.66;51.19;101905.88;5013216;28;50003;-66
2022/03/02 06:32:42;;;;;;;;;52.25;42.00;;;;;8.15;51.58;101818.84;5032605;28;49724;-67
2022/03/02 06:35:08;;;;;;;;;60.75;47.75;;;;;7.41;51.33;101702.03;5032468;28;50007;-67
2022/03/02 06:37:34;;;;;;;;;55.50;43.00;;;;;7.41;51.29;101725.53;5032119;28;49933;-67
2022/03/02 06:40:02;;;;;;;;;51.75;42.25;;;;;8.32;51.32;101871.97;5032398;28;49946;-66
2022/03/02 06:42:40;;;;;;;;;55.75;43.25;;;;;7.38;51.79;101722.78;5032196;28;49938;-69
2022/03/02 06:45:21;;;;;;;;;60.00;43.50;;;;;7.28;51.94;101738.81;5014358;28;49902;-67
2022/03/02 06:47:53;;;;;;;;;59.50;45.75;;;;;8.43;51.93;101909.16;5032009;28;50512;-66
2022/03/02 06:50:25;;;;;;;;;53.75;43.50;;;;;8.30;52.38;101889.34;5032532;28;49891;-67
2022/03/02 06:52:54;;;;;;;;;60.00;48.75;;;;;8.23;51.70;101876.78;5032020;28;49786;-67
2022/03/02 06:55:21;;;;;;;;;58.00;43.25;;;;;6.19;51.58;101531.56;5032429;28;49785;-66
2022/03/02 06:57:52;;;;;;;;;49.75;43.50;;;;;6.43;51.88;101597.09;5031845;28;49984;-66
2022/03/02 07:00:18;;;;;;;;;57.25;45.00;;;;;7.00;51.84;101681.72;5031955;28;50080;-65
2022/03/02 07:02:48;;;;;;;;;52.75;43.25;;;;;7.41;51.56;101751.66;5031913;28;49680;-66
2022/03/02 07:05:17;;;;;;;;;57.00;46.00;;;;;7.86;52.41;101821.78;5032143;28;49952;-66
2022/03/02 07:07:43;;;;;;;;;52.75;43.50;;;;;7.37;51.71;101707.03;5031546;28;50905;-67
2022/03/02 07:10:09;;;;;;;;;56.25;43.50;;;;;8.30;50.81;101876.25;5031749;28;49896;-67
2022/03/02 07:12:35;;;;;;;;;52.00;42.00;;;;;6.50;51.07;101561.78;5031966;28;49733;-66
2022/03/02 07:15:01;;;;;;;;;57.25;45.75;;;;;6.78;51.19;101619.75;5032107;28;50052;-66
2022/03/02 07:17:27;;;;;;;;;40.75;39.00;;;;;7.17;51.32;101664.28;5031547;28;51035;-65
2022/03/02 07:19:53;;;;;;;;;56.00;46.50;;;;;8.71;51.28;101924.44;5031548;28;49775;-66
2022/03/02 07:22:21;;;;;;;;;54.75;42.75;;;;;6.34;50.28;101539.25;5031363;28;49900;-66
2022/03/02 07:25:03;;;;;;;;;57.00;46.00;;;;;8.18;50.66;101860.84;5031670;28;49709;-66
2022/03/02 07:27:29;;;;;;;;;51.75;43.50;;;;;8.19;50.14;101815.53;5031418;28;49912;-66
2022/03/02 07:29:55;;;;;;;;;57.75;42.75;;;;;8.25;50.88;101862.03;5031780;28;49895;-66
2022/03/02 07:32:29;;;;;;;;;51.50;41.25;;;;;8.23;50.30;101833.19;5031744;28;50502;-66
2022/03/02 07:34:56;;;;;;;;;56.00;45.00;;;;;8.19;50.36;101844.31;5031570;28;49646;-66
2022/03/02 07:37:24;;;;;;;;;51.00;41.25;;;;;8.72;50.69;101913.13;5030941;28;49752;-66
2022/03/02 07:39:50;;;;;;;;;39.75;34.50;;;;;7.58;50.58;101717.63;5030980;28;49754;-66
2022/03/02 07:42:16;;;;;;;;;54.75;45.00;;;;;8.53;51.26;101878.25;5031481;28;49981;-66
2022/03/02 07:44:41;;;;;;;;;47.25;40.75;;;;;8.49;51.34;101883.25;5031682;28;49777;-66
2022/03/02 07:47:09;;;;;;;;;46.75;42.50;;;;;8.44;50.99;101833.34;5031489;28;50576;-67
2022/03/02 07:49:35;;;;;;;;;52.50;45.25;;;;;8.90;50.90;101903.53;5031545;28;49722;-66
2022/03/02 07:52:07;;;;;;;;;57.75;44.00;;;;;6.65;50.60;101523.38;5030925;28;49945;-66
2022/03/02 07:54:40;;;;;;;;;48.00;42.25;;;;;9.08;50.47;101906.97;5025205;28;49955;-66
2022/03/02 07:57:11;;;;;;;;;57.75;47.25;;;;;6.69;50.67;101472.28;5030822;28;50460;-66
2022/03/02 07:59:41;;;;;;;;;63.25;43.25;;;;;8.82;50.15;101808.00;5031051;28;49886;-66
2022/03/02 08:02:13;;;;;;;;;57.75;45.25;;;;;8.30;49.77;101691.41;5029593;28;50028;-66
2022/03/02 08:04:40;;;;;;;;;50.25;43.00;;;;;9.25;48.55;101864.88;5031246;28;50018;-67
2022/03/02 08:07:06;;;;;;;;;59.75;44.50;;;;;8.75;48.75;101816.41;5030708;28;50661;-66
2022/03/02 08:09:32;;;;;;;;;52.50;38.00;;;;;7.17;48.53;101515.44;5031153;28;49910;-65
2022/03/02 08:12:03;;;;;;;;;56.75;44.50;;;;;8.55;48.30;101743.13;5031071;28;49760;-64
2022/03/02 08:14:28;;;;;;;;;49.25;42.75;;;;;9.61;48.51;101918.00;5031174;28;49757;-64
2022/03/02 08:16:55;;;;;;;;;48.50;42.00;;;;;9.53;47.37;101890.56;5030791;28;50663;-67
2022/03/02 08:19:21;;;;;;;;;51.25;43.50;;;;;9.70;47.18;101913.16;5030976;28;49826;-65
2022/03/02 08:22:05;;;;;;;;;51.00;42.50;;;;;9.45;47.79;101845.66;5030815;28;49813;-71
2022/03/02 08:24:31;;;;;;;;;47.00;40.00;;;;;9.90;47.52;101914.00;5028994;28;50238;-71
2022/03/02 08:27:02;;;;;;;;;61.25;45.50;;;;;7.87;47.61;101563.06;5030618;28;50409;-71
2022/03/02 08:29:30;;;;;;;;;56.25;47.00;;;;;9.65;47.03;101885.84;5030627;28;49964;-71
2022/03/02 08:31:59;;;;;;;;;55.75;46.00;;;;;8.80;47.58;101708.44;5030777;28;49860;-72
2022/03/02 08:34:26;;;;;;;;;51.25;41.00;;;;;10.12;47.19;101895.69;5030936;28;49750;-67
2022/03/02 08:36:53;;;;;;;;;49.25;42.75;;;;;9.89;46.95;101867.63;5030374;28;50910;-65
2022/03/02 08:39:19;;;;;;;;;53.50;42.75;;;;;8.89;47.12;101660.81;5030982;28;49728;-66
2022/03/02 08:41:45;;;;;;;;;57.50;44.00;;;;;9.62;47.02;101813.19;5031181;28;49703;-68
2022/03/02 08:44:14;;;;;;;;;49.25;37.50;;;;;10.12;46.05;101879.03;5034648;28;49872;-66
2022/03/02 08:46:41;;;;;;;;;65.75;45.00;;;;;9.94;45.93;101847.69;5030534;28;51053;-65
2022/03/02 08:49:07;;;;;;;;;59.25;45.00;;;;;10.19;46.30;101923.06;5033090;28;49858;-66
2022/03/02 08:51:35;;;;;;;;;54.50;43.75;;;;;10.20;46.35;101901.25;5028636;28;49660;-66
2022/03/02 08:54:03;;;;;;;;;52.00;42.50;;;;;9.77;46.55;101810.31;5029465;28;50162;-64
2022/03/02 08:56:32;;;;;;;;;50.50;42.25;;;;;8.56;46.02;101594.84;5028993;28;49776;-65
2022/03/02 08:59:00;;;;;;;;;56.25;43.75;;;;;8.29;45.47;101547.41;5030093;28;49819;-65
2022/03/02 09:01:29;;;;;;;;;50.75;42.50;;;;;9.94;45.46;101801.41;5029361;28;49865;-65
2022/03/02 09:03:58;;;;;;;;;59.00;45.25;;;;;10.21;45.63;101869.81;5032899;28;49813;-64
2022/03/02 09:06:29;;;;;;;;;45.75;39.50;;;;;10.11;45.39;101801.16;5029963;28;51185;-67
2022/03/02 09:08:57;;;;;;;;;55.25;41.75;;;;;10.69;44.90;101871.69;5029742;28;49678;-68
2022/03/02 09:11:23;;;;;;;;;50.75;41.00;;;;;9.79;45.55;101724.75;5011964;28;50070;-67
2022/03/02 09:13:52;;;;;;;;;40.25;36.75;;;;;10.37;44.27;101791.72;5030517;28;49968;-65
2022/03/02 09:16:18;;;;;;;;;49.50;40.00;;;;;10.77;44.86;101836.09;5030269;28;49698;-64
2022/03/02 09:18:44;;;;;;;;;50.75;41.00;;;;;10.33;44.77;101722.47;5011799;28;49879;-65
2022/03/02 09:21:13;;;;;;;;;58.75;46.00;;;;;11.34;43.55;101870.59;5029746;28;49812;-65
2022/03/02 09:23:42;;;;;;;;;59.25;45.25;;;;;9.43;44.03;101573.03;5029976;28;50215;-64
2022/03/02 09:26:10;;;;;;;;;54.25;43.00;;;;;10.82;43.75;101772.41;5028149;28;52463;-64
2022/03/02 09:28:39;;;;;;;;;46.50;39.75;;;;;11.40;43.35;101850.69;5032019;28;49630;-65
2022/03/02 09:31:07;;;;;;;;;57.75;44.00;;;;;9.61;43.23;101527.41;5029721;28;49689;-64
2022/03/02 09:33:36;;;;;;;;;47.50;41.50;;;;;11.65;42.92;101870.81;5030080;28;49769;-67
2022/03/02 09:36:07;;;;;;;;;55.00;43.75;;;;;11.45;42.81;101814.00;5029672;28;50690;-67
2022/03/02 09:38:34;;;;;;;;;46.50;37.75;;;;;10.91;41.88;101742.94;5035254;28;49797;-67
2022/03/02 09:41:37;;;;;;;;;53.00;44.50;;;;;11.83;42.18;101869.66;5028787;28;49676;-69
2022/03/02 09:44:05;;;;;;;;;53.50;44.00;;;;;11.76;41.88;101863.25;5030866;28;50275;-69
2022/03/02 09:46:34;;;;;;;;;58.00;45.25;;;;;9.92;42.08;101511.91;5046909;28;49751;-70
2022/03/02 09:49:08;;;;;;;;;45.25;38.25;;;;;11.05;42.33;101707.53;5025696;28;49651;-69
2022/03/02 09:51:36;;;;;;;;;50.00;41.75;;;;;11.53;41.79;101822.16;5035137;28;49714;-69
2022/03/02 09:54:03;;;;;;;;;57.25;44.25;;;;;11.79;41.57;101802.88;5037949;28;49721;-69
2022/03/02 09:56:32;;;;;;;;;57.00;45.25;;;;;12.29;41.41;101891.38;5035560;28;50725;-70
2022/03/02 09:58:59;;;;;;;;;53.25;45.00;;;;;10.69;40.90;101603.81;5037874;28;49902;-69
2022/03/02 10:01:26;;;;;;;;;53.00;44.25;;;;;10.49;41.26;101530.53;5042681;28;49782;-69
2022/03/02 10:03:53;;;;;;;;;55.25;45.00;;;;;12.21;40.44;101800.72;5040845;28;49866;-69
2022/03/02 10:06:21;;;;;;;;;54.50;44.25;;;;;11.88;40.18;101776.91;5013433;28;52339;-72
2022/03/02 10:08:51;;;;;;;;;57.00;44.50;;;;;11.65;40.46;101718.25;5032562;28;49769;-72
2022/03/02 10:11:26;;;;;;;;;54.25;45.25;;;;;12.62;40.90;101872.19;5033196;28;49642;-67
2022/03/02 10:13:56;;;;;;;;;55.50;43.25;;;;;11.58;40.52;101694.31;5032923;28;49913;-72
2022/03/02 10:16:24;;;;;;;;;53.25;42.00;;;;;12.40;40.06;101854.84;5036146;28;51047;-67
2022/03/02 10:18:57;;;;;;;;;55.00;43.00;;;;;12.41;40.39;101814.50;5032286;28;50056;-68
2022/03/02 10:21:44;;;;;;;;;53.50;42.25;;;;;11.65;40.05;101664.75;5031743;28;49771;-68
2022/03/02 10:24:14;;;;;;;;;53.00;44.00;;;;;11.53;40.19;101643.34;5032558;28;49744;-68
2022/03/02 10:26:50;;;;;;;;;57.25;46.00;;;;;11.27;39.67;101589.94;5032203;28;50823;-70
2022/03/02 10:29:40;;;;;;;;;58.00;45.00;;;;;12.97;39.74;101851.25;5026602;28;49898;-70
2022/03/02 10:32:15;;;;;;;;;54.75;43.00;;;;;12.69;39.72;101805.66;5032428;28;49658;-67
2022/03/02 10:34:49;;;;;;;;;55.25;42.75;;;;;13.03;39.57;101838.25;5032471;28;49630;-70
2022/03/02 10:37:20;;;;;;;;;48.75;41.50;;;;;13.17;39.30;101837.78;5031875;28;49803;-69
2022/03/02 10:40:05;;;;;;;;;51.25;41.50;;;;;12.48;38.81;101690.06;5032176;28;49947;-67
2022/03/02 10:42:35;;;;;;;;;53.50;43.75;;;;;13.10;39.35;101776.91;5014135;28;49737;-69
2022/03/02 10:45:18;;;;;;;;;53.25;44.50;;;;;13.56;38.39;101825.63;5032593;28;49818;-66
2022/03/02 10:47:55;;;;;;;;;51.25;41.25;;;;;13.63;38.80;101822.31;5032197;28;49682;-67
2022/03/02 10:50:22;;;;;;;;;58.50;42.75;;;;;13.23;38.43;101712.28;5032378;28;50008;-65
2022/03/02 10:52:48;;;;;;;;;57.25;45.75;;;;;12.44;38.24;101596.00;5032041;28;49876;-67
2022/03/02 10:55:15;;;;;;;;;51.75;41.25;;;;;13.55;37.94;101749.97;5032053;28;49741;-65
2022/03/02 10:57:45;;;;;;;;;50.75;41.25;;;;;13.35;38.08;101702.03;5031655;28;49909;-66
2022/03/02 11:00:14;;;;;;;;;50.25;41.00;;;;;12.37;38.41;101520.34;5032086;28;49836;-67
2022/03/02 11:02:42;;;;;;;;;52.25;42.00;;;;;14.31;38.00;101820.41;5032106;28;50093;-70
2022/03/02 11:05:16;;;;;;;;;48.00;41.00;;;;;14.14;37.33;101774.22;5032340;28;49933;-64
2022/03/02 11:07:42;;;;;;;;;53.25;44.50;;;;;14.16;38.04;101751.38;5031524;28;50619;-63
2022/03/02 11:10:10;;;;;;;;;56.25;44.75;;;;;14.21;36.96;101753.28;5030992;28;49878;-68
2022/03/02 11:12:44;;;;;;;;;52.75;41.75;;;;;14.27;36.83;101758.69;5030541;28;50004;-66
2022/03/02 11:15:11;;;;;;;;;58.25;43.50;;;;;14.43;36.50;101794.25;5031049;28;49987;-69